sensor_id;sensor_type;location;lat;lon;timestamp;pressure;altitude;pressure_sealevel;temperature;humidity
73981;BME280;62348;51.412;5.436;2024-02-21T00:00:46;102110.72;;;8.07;100.00
73981;BME280;62348;51.412;5.436;2024-02-21T00:03:12;102104.53;;;8.07;100.00
73981;BME280;62348;51.412;5.436;2024-02-21T00:05:37;102109.06;;;8.06;100.00
73981;BME280;62348;51.412;5.436;2024-02-21T00:08:03;102109.06;;;8.06;100.00
73981;BME280;62348;51.412;5.436;2024-02-21T00:10:28;102109.91;;;8.07;100.00
73981;BME280;62348;51.412;5.436;2024-02-21T00:12:56;102109.91;;;8.07;100.00
73981;BME280;62348;51.412;5.436;2024-02-21T00:15:22;102106.38;;;8.06;100.00
73981;BME280;62348;51.412;5.436;2024-02-21T00:17:47;102111.75;;;8.06;100.00
73981;BME280;62348;51.412;5.436;2024-02-21T00:20:14;102117.13;;;8.06;100.00
73981;BME280;62348;51.412;5.436;2024-02-21T00:22:39;102117.13;;;8.06;100.00
73981;BME280;62348;51.412;5.436;2024-02-21T00:25:05;102110.13;;;8.05;100.00
73981;BME280;62348;51.412;5.436;2024-02-21T00:27:30;102102.03;;;8.05;100.00
73981;BME280;62348;51.412;5.436;2024-02-21T00:29:57;102114.44;;;8.06;100.00
73981;BME280;62348;51.412;5.436;2024-02-21T00:32:22;102107.22;;;8.07;100.00
73981;BME280;62348;51.412;5.436;2024-02-21T00:34:48;102105.34;;;8.07;100.00
73981;BME280;62348;51.412;5.436;2024-02-21T00:37:13;102088.34;;;8.07;100.00
73981;BME280;62348;51.412;5.436;2024-02-21T00:39:39;102084.59;;;8.08;100.00
73981;BME280;62348;51.412;5.436;2024-02-21T00:42:04;102079.44;;;8.06;100.00
73981;BME280;62348;51.412;5.436;2024-02-21T00:44:30;102080.47;;;8.05;100.00
73981;BME280;62348;51.412;5.436;2024-02-21T00:46:55;102067.22;;;8.04;100.00
73981;BME280;62348;51.412;5.436;2024-02-21T00:49:21;102066.41;;;8.03;100.00
73981;BME280;62348;51.412;5.436;2024-02-21T00:51:47;102051.28;;;8.02;100.00
73981;BME280;62348;51.412;5.436;2024-02-21T00:54:12;102062.25;;;8.00;100.00
73981;BME280;62348;51.412;5.436;2024-02-21T00:56:37;102044.47;;;7.99;100.00
73981;BME280;62348;51.412;5.436;2024-02-21T00:59:03;102035.97;;;7.96;100.00
73981;BME280;62348;51.412;5.436;2024-02-21T01:01:28;102042.41;;;7.95;100.00
73981;BME280;62348;51.412;5.436;2024-02-21T01:03:54;102057.13;;;7.92;100.00
73981;BME280;62348;51.412;5.436;2024-02-21T01:06:19;102058.16;;;7.91;100.00
73981;BME280;62348;51.412;5.436;2024-02-21T01:08:48;102058.16;;;7.91;100.00
73981;BME280;62348;51.412;5.436;2024-02-21T01:11:15;102051.13;;;7.90;100.00
73981;BME280;62348;51.412;5.436;2024-02-21T01:13:40;102044.09;;;7.89;100.00
73981;BME280;62348;51.412;5.436;2024-02-21T01:16:06;102052.19;;;7.89;100.00
73981;BME280;62348;51.412;5.436;2024-02-21T01:18:37;102052.19;;;7.89;100.00
73981;BME280;62348;51.412;5.436;2024-02-21T01:21:02;102035.38;;;7.87;100.00
73981;BME280;62348;51.412;5.436;2024-02-21T01:23:32;102027.28;;;7.87;100.00
73981;BME280;62348;51.412;5.436;2024-02-21T01:25:57;102013.22;;;7.85;100.00
73981;BME280;62348;51.412;5.436;2024-02-21T01:28:23;102008.91;;;7.84;100.00
73981;BME280;62348;51.412;5.436;2024-02-21T01:30:48;102011.59;;;7.84;100.00
73981;BME280;62348;51.412;5.436;2024-02-21T01:33:13;102014.69;;;7.81;100.00
73981;BME280;62348;51.412;5.436;2024-02-21T01:35:39;102019.25;;;7.80;100.00
73981;BME280;62348;51.412;5.436;2024-02-21T01:38:04;102013.06;;;7.80;100.00
73981;BME280;62348;51.412;5.436;2024-02-21T01:40:29;102010.56;;;7.78;100.00
73981;BME280;62348;51.412;5.436;2024-02-21T01:42:55;102014.09;;;7.79;100.00
73981;BME280;62348;51.412;5.436;2024-02-21T01:45:21;102011.41;;;7.79;100.00
73981;BME280;62348;51.412;5.436;2024-02-21T01:47:47;102000.63;;;7.79;100.00
73981;BME280;62348;51.412;5.436;2024-02-21T01:50:14;102004.13;;;7.79;100.00
73981;BME280;62348;51.412;5.436;2024-02-21T01:52:41;102002.28;;;7.80;100.00
73981;BME280;62348;51.412;5.436;2024-02-21T01:55:09;102006.00;;;7.79;100.00
73981;BME280;62348;51.412;5.436;2024-02-21T01:57:36;102002.50;;;7.78;100.00
73981;BME280;62348;51.412;5.436;2024-02-21T02:00:01;102004.38;;;7.78;100.00
73981;BME280;62348;51.412;5.436;2024-02-21T02:02:28;102009.75;;;7.78;100.00
73981;BME280;62348;51.412;5.436;2024-02-21T02:04:54;102010.56;;;7.78;100.00
73981;BME280;62348;51.412;5.436;2024-02-21T02:07:19;102011.41;;;7.79;100.00
73981;BME280;62348;51.412;5.436;2024-02-21T02:09:45;102007.69;;;7.80;100.00
73981;BME280;62348;51.412;5.436;2024-02-21T02:12:10;102007.69;;;7.80;100.00
73981;BME280;62348;51.412;5.436;2024-02-21T02:14:36;101994.22;;;7.80;100.00
73981;BME280;62348;51.412;5.436;2024-02-21T02:17:01;102000.41;;;7.80;100.00
73981;BME280;62348;51.412;5.436;2024-02-21T02:19:27;101989.84;;;7.79;100.00
73981;BME280;62348;51.412;5.436;2024-02-21T02:22:00;101989.66;;;7.80;100.00
73981;BME280;62348;51.412;5.436;2024-02-21T02:24:31;101986.13;;;7.80;100.00
73981;BME280;62348;51.412;5.436;2024-02-21T02:26:57;101979.69;;;7.81;100.00
73981;BME280;62348;51.412;5.436;2024-02-21T02:29:22;101975.38;;;7.80;100.00
73981;BME280;62348;51.412;5.436;2024-02-21T02:31:49;101963.75;;;7.79;100.00
73981;BME280;62348;51.412;5.436;2024-02-21T02:34:14;101957.53;;;7.79;100.00
73981;BME280;62348;51.412;5.436;2024-02-21T02:36:40;101949.47;;;7.79;100.00
73981;BME280;62348;51.412;5.436;2024-02-21T02:39:05;101939.97;;;7.76;100.00
73981;BME280;62348;51.412;5.436;2024-02-21T02:41:35;101947.84;;;7.78;100.00
73981;BME280;62348;51.412;5.436;2024-02-21T02:44:00;101953.44;;;7.76;100.00
73981;BME280;62348;51.412;5.436;2024-02-21T02:46:25;101950.72;;;7.76;100.00
73981;BME280;62348;51.412;5.436;2024-02-21T02:48:51;101949.91;;;7.76;100.00
73981;BME280;62348;51.412;5.436;2024-02-21T02:51:16;101941.84;;;7.76;100.00
73981;BME280;62348;51.412;5.436;2024-02-21T02:53:42;101935.59;;;7.75;100.00
73981;BME280;62348;51.412;5.436;2024-02-21T02:56:07;101930.22;;;7.75;100.00
73981;BME280;62348;51.412;5.436;2024-02-21T02:58:32;101936.66;;;7.74;100.00
73981;BME280;62348;51.412;5.436;2024-02-21T03:01:00;101933.13;;;7.74;100.00
73981;BME280;62348;51.412;5.436;2024-02-21T03:03:25;101923.19;;;7.74;100.00
73981;BME280;62348;51.412;5.436;2024-02-21T03:05:50;101911.59;;;7.74;100.00
73981;BME280;62348;51.412;5.436;2024-02-21T03:08:16;101917.81;;;7.74;100.00
73981;BME280;62348;51.412;5.436;2024-02-21T03:10:41;101915.94;;;7.75;100.00
73981;BME280;62348;51.412;5.436;2024-02-21T03:13:06;101917.81;;;7.74;100.00
73981;BME280;62348;51.412;5.436;2024-02-21T03:15:32;101918.63;;;7.75;100.00
73981;BME280;62348;51.412;5.436;2024-02-21T03:17:57;101924.03;;;7.75;100.00
73981;BME280;62348;51.412;5.436;2024-02-21T03:20:23;101928.13;;;7.77;100.00
73981;BME280;62348;51.412;5.436;2024-02-21T03:22:48;101909.28;;;7.77;100.00
73981;BME280;62348;51.412;5.436;2024-02-21T03:25:13;101902.28;;;7.76;100.00
73981;BME280;62348;51.412;5.436;2024-02-21T03:27:40;101901.22;;;7.77;100.00
73981;BME280;62348;51.412;5.436;2024-02-21T03:30:05;101902.06;;;7.78;100.00
73981;BME280;62348;51.412;5.436;2024-02-21T03:32:31;101892.31;;;7.77;100.00
73981;BME280;62348;51.412;5.436;2024-02-21T03:34:56;101887.75;;;7.77;100.00
73981;BME280;62348;51.412;5.436;2024-02-21T03:37:22;101880.72;;;7.76;100.00
73981;BME280;62348;51.412;5.436;2024-02-21T03:39:47;101882.38;;;7.77;100.00
73981;BME280;62348;51.412;5.436;2024-02-21T03:42:13;101873.47;;;7.77;100.00
73981;BME280;62348;51.412;5.436;2024-02-21T03:44:38;101874.28;;;7.77;100.00
73981;BME280;62348;51.412;5.436;2024-02-21T03:47:04;101869.97;;;7.76;100.00
73981;BME280;62348;51.412;5.436;2024-02-21T03:49:29;101859.19;;;7.76;100.00
73981;BME280;62348;51.412;5.436;2024-02-21T03:51:55;101856.72;;;7.75;100.00
73981;BME280;62348;51.412;5.436;2024-02-21T03:54:21;101857.53;;;7.75;100.00
73981;BME280;62348;51.412;5.436;2024-02-21T03:56:47;101851.31;;;7.75;100.00
73981;BME280;62348;51.412;5.436;2024-02-21T03:59:15;101842.66;;;7.73;100.00
73981;BME280;62348;51.412;5.436;2024-02-21T04:01:40;101848.03;;;7.73;100.00
73981;BME280;62348;51.412;5.436;2024-02-21T04:04:06;101839.34;;;7.71;100.00
73981;BME280;62348;51.412;5.436;2024-02-21T04:06:32;101849.91;;;7.72;100.00
73981;BME280;62348;51.412;5.436;2024-02-21T04:08:57;101849.31;;;7.70;100.00
73981;BME280;62348;51.412;5.436;2024-02-21T04:11:22;101845.75;;;7.70;100.00
73981;BME280;62348;51.412;5.436;2024-02-21T04:13:48;101852.00;;;7.70;100.00
73981;BME280;62348;51.412;5.436;2024-02-21T04:16:14;101858.63;;;7.68;100.00
73981;BME280;62348;51.412;5.436;2024-02-21T04:18:40;101854.03;;;7.68;100.00
73981;BME280;62348;51.412;5.436;2024-02-21T04:21:05;101852.41;;;7.67;100.00
73981;BME280;62348;51.412;5.436;2024-02-21T04:23:31;101858.81;;;7.66;100.00
73981;BME280;62348;51.412;5.436;2024-02-21T04:25:56;101860.50;;;7.67;100.00
73981;BME280;62348;51.412;5.436;2024-02-21T04:28:21;101850.75;;;7.66;100.00
73981;BME280;62348;51.412;5.436;2024-02-21T04:30:47;101859.66;;;7.67;100.00
73981;BME280;62348;51.412;5.436;2024-02-21T04:33:12;101855.31;;;7.66;100.00
73981;BME280;62348;51.412;5.436;2024-02-21T04:35:38;101850.75;;;7.66;100.00
73981;BME280;62348;51.412;5.436;2024-02-21T04:38:04;101853.22;;;7.68;100.00
73981;BME280;62348;51.412;5.436;2024-02-21T04:40:30;101853.44;;;7.66;100.00
73981;BME280;62348;51.412;5.436;2024-02-21T04:42:56;101846.44;;;7.65;100.00
73981;BME280;62348;51.412;5.436;2024-02-21T04:45:22;101852.63;;;7.66;100.00
73981;BME280;62348;51.412;5.436;2024-02-21T04:47:47;101850.53;;;7.68;100.00
73981;BME280;62348;51.412;5.436;2024-02-21T04:50:12;101847.03;;;7.67;100.00
73981;BME280;62348;51.412;5.436;2024-02-21T04:52:38;101845.16;;;7.68;100.00
73981;BME280;62348;51.412;5.436;2024-02-21T04:55:03;101847.03;;;7.67;100.00
73981;BME280;62348;51.412;5.436;2024-02-21T04:57:29;101838.13;;;7.67;100.00
73981;BME280;62348;51.412;5.436;2024-02-21T04:59:54;101839.16;;;7.66;100.00
73981;BME280;62348;51.412;5.436;2024-02-21T05:02:19;101835.44;;;7.67;100.00
73981;BME280;62348;51.412;5.436;2024-02-21T05:04:47;101832.75;;;7.67;100.00
73981;BME280;62348;51.412;5.436;2024-02-21T05:07:13;101824.69;;;7.67;100.00
73981;BME280;62348;51.412;5.436;2024-02-21T05:09:38;101825.50;;;7.67;100.00
73981;BME280;62348;51.412;5.436;2024-02-21T05:12:04;101822.81;;;7.67;100.00
73981;BME280;62348;51.412;5.436;2024-02-21T05:14:29;101828.19;;;7.67;100.00
73981;BME280;62348;51.412;5.436;2024-02-21T05:16:55;101824.88;;;7.65;100.00
73981;BME280;62348;51.412;5.436;2024-02-21T05:19:20;101820.53;;;7.64;100.00
73981;BME280;62348;51.412;5.436;2024-02-21T05:21:46;101818.69;;;7.65;100.00
73981;BME280;62348;51.412;5.436;2024-02-21T05:24:12;101818.69;;;7.65;100.00
73981;BME280;62348;51.412;5.436;2024-02-21T05:26:37;101810.63;;;7.65;100.00
73981;BME280;62348;51.412;5.436;2024-02-21T05:29:03;101807.06;;;7.64;100.00
73981;BME280;62348;51.412;5.436;2024-02-21T05:31:54;101797.16;;;7.65;100.00
73981;BME280;62348;51.412;5.436;2024-02-21T05:34:21;101785.53;;;7.64;100.00
73981;BME280;62348;51.412;5.436;2024-02-21T05:36:46;101785.75;;;7.62;100.00
73981;BME280;62348;51.412;5.436;2024-02-21T05:39:13;101786.59;;;7.63;100.00
73981;BME280;62348;51.412;5.436;2024-02-21T05:41:39;101780.38;;;7.62;100.00
73981;BME280;62348;51.412;5.436;2024-02-21T05:44:05;101779.56;;;7.62;100.00
73981;BME280;62348;51.412;5.436;2024-02-21T05:46:30;101777.69;;;7.62;100.00
73981;BME280;62348;51.412;5.436;2024-02-21T05:48:55;101768.78;;;7.62;100.00
73981;BME280;62348;51.412;5.436;2024-02-21T05:51:21;101768.78;;;7.62;100.00
73981;BME280;62348;51.412;5.436;2024-02-21T05:53:46;101772.28;;;7.62;100.00
73981;BME280;62348;51.412;5.436;2024-02-21T05:56:12;101766.09;;;7.62;100.00
73981;BME280;62348;51.412;5.436;2024-02-21T05:58:38;101766.09;;;7.62;100.00
73981;BME280;62348;51.412;5.436;2024-02-21T06:01:04;101766.91;;;7.62;100.00
73981;BME280;62348;51.412;5.436;2024-02-21T06:03:30;101766.09;;;7.62;100.00
73981;BME280;62348;51.412;5.436;2024-02-21T06:05:55;101755.94;;;7.64;100.00
73981;BME280;62348;51.412;5.436;2024-02-21T06:08:21;101752.41;;;7.63;100.00
73981;BME280;62348;51.412;5.436;2024-02-21T06:10:46;101753.25;;;7.64;100.00
73981;BME280;62348;51.412;5.436;2024-02-21T06:13:13;101741.06;;;7.61;100.00
73981;BME280;62348;51.412;5.436;2024-02-21T06:15:39;101728.41;;;7.62;100.00
73981;BME280;62348;51.412;5.436;2024-02-21T06:18:04;101725.94;;;7.60;100.00
73981;BME280;62348;51.412;5.436;2024-02-21T06:20:30;101722.22;;;7.61;100.00
73981;BME280;62348;51.412;5.436;2024-02-21T06:22:55;101722.44;;;7.60;100.00
73981;BME280;62348;51.412;5.436;2024-02-21T06:25:20;101732.16;;;7.61;100.00
73981;BME280;62348;51.412;5.436;2024-02-21T06:27:46;101727.81;;;7.60;100.00
73981;BME280;62348;51.412;5.436;2024-02-21T06:30:11;101733.19;;;7.60;100.00
73981;BME280;62348;51.412;5.436;2024-02-21T06:32:37;101729.69;;;7.59;100.00
73981;BME280;62348;51.412;5.436;2024-02-21T06:35:04;101723.50;;;7.59;100.00
73981;BME280;62348;51.412;5.436;2024-02-21T06:37:29;101731.56;;;7.59;100.00
73981;BME280;62348;51.412;5.436;2024-02-21T06:39:55;101723.69;;;7.57;100.00
73981;BME280;62348;51.412;5.436;2024-02-21T06:42:21;101726.38;;;7.57;100.00
73981;BME280;62348;51.412;5.436;2024-02-21T06:44:46;101730.72;;;7.58;100.00
73981;BME280;62348;51.412;5.436;2024-02-21T06:47:12;101722.63;;;7.58;100.00
73981;BME280;62348;51.412;5.436;2024-02-21T06:49:37;101729.91;;;7.58;100.00
73981;BME280;62348;51.412;5.436;2024-02-21T06:52:04;101731.78;;;7.57;100.00
73981;BME280;62348;51.412;5.436;2024-02-21T06:54:30;101730.94;;;7.57;100.00
73981;BME280;62348;51.412;5.436;2024-02-21T06:56:56;101739.84;;;7.57;100.00
73981;BME280;62348;51.412;5.436;2024-02-21T06:59:21;101734.88;;;7.54;100.00
73981;BME280;62348;51.412;5.436;2024-02-21T07:01:49;101736.56;;;7.55;100.00
73981;BME280;62348;51.412;5.436;2024-02-21T07:04:14;101732.19;;;7.54;100.00
73981;BME280;62348;51.412;5.436;2024-02-21T07:06:40;101724.94;;;7.55;100.00
73981;BME280;62348;51.412;5.436;2024-02-21T07:09:05;101720.63;;;7.54;100.00
73981;BME280;62348;51.412;5.436;2024-02-21T07:11:31;101712.53;;;7.54;100.00
73981;BME280;62348;51.412;5.436;2024-02-21T07:13:56;101716.88;;;7.55;100.00
73981;BME280;62348;51.412;5.436;2024-02-21T07:16:21;101709.63;;;7.55;100.00
73981;BME280;62348;51.412;5.436;2024-02-21T07:18:47;101705.28;;;7.54;100.00
73981;BME280;62348;51.412;5.436;2024-02-21T07:21:12;101706.94;;;7.55;100.00
73981;BME280;62348;51.412;5.436;2024-02-21T07:23:43;101710.66;;;7.54;100.00
73981;BME280;62348;51.412;5.436;2024-02-21T07:26:09;101704.25;;;7.55;100.00
73981;BME280;62348;51.412;5.436;2024-02-21T07:28:34;101704.25;;;7.55;100.00
73981;BME280;62348;51.412;5.436;2024-02-21T07:31:00;101705.88;;;7.56;100.00
73981;BME280;62348;51.412;5.436;2024-02-21T07:33:25;101699.47;;;7.57;100.00
73981;BME280;62348;51.412;5.436;2024-02-21T07:35:51;101691.41;;;7.57;100.00
73981;BME280;62348;51.412;5.436;2024-02-21T07:38:16;101682.47;;;7.57;100.00
73981;BME280;62348;51.412;5.436;2024-02-21T07:40:46;101688.50;;;7.59;100.00
73981;BME280;62348;51.412;5.436;2024-02-21T07:43:11;101683.94;;;7.59;100.00
73981;BME280;62348;51.412;5.436;2024-02-21T07:45:37;101673.97;;;7.60;100.00
73981;BME280;62348;51.412;5.436;2024-02-21T07:48:07;101672.94;;;7.61;100.00
73981;BME280;62348;51.412;5.436;2024-02-21T07:50:33;101663.00;;;7.61;100.00
73981;BME280;62348;51.412;5.436;2024-02-21T07:52:58;101659.88;;;7.65;100.00
73981;BME280;62348;51.412;5.436;2024-02-21T07:55:23;101654.50;;;7.65;100.00
73981;BME280;62348;51.412;5.436;2024-02-21T07:57:49;101644.53;;;7.65;100.00
73981;BME280;62348;51.412;5.436;2024-02-21T08:00:15;101648.66;;;7.68;100.00
73981;BME280;62348;51.412;5.436;2024-02-21T08:02:45;101639.75;;;7.67;100.00
73981;BME280;62348;51.412;5.436;2024-02-21T08:05:11;101649.47;;;7.68;100.00
73981;BME280;62348;51.412;5.436;2024-02-21T08:07:37;101644.09;;;7.68;100.00
73981;BME280;62348;51.412;5.436;2024-02-21T08:10:04;101645.75;;;7.69;100.00
73981;BME280;62348;51.412;5.436;2024-02-21T08:12:29;101633.09;;;7.70;100.00
73981;BME280;62348;51.412;5.436;2024-02-21T08:14:54;101628.31;;;7.72;100.00
73981;BME280;62348;51.412;5.436;2024-02-21T08:17:20;101627.28;;;7.73;100.00
73981;BME280;62348;51.412;5.436;2024-02-21T08:19:45;101629.75;;;7.74;100.00
73981;BME280;62348;51.412;5.436;2024-02-21T08:22:11;101622.50;;;7.75;100.00
73981;BME280;62348;51.412;5.436;2024-02-21T08:24:36;101619.59;;;7.76;100.00
73981;BME280;62348;51.412;5.436;2024-02-21T08:27:01;101611.28;;;7.78;100.00
73981;BME280;62348;51.412;5.436;2024-02-21T08:29:27;101604.63;;;7.80;100.00
73981;BME280;62348;51.412;5.436;2024-02-21T08:31:53;101605.22;;;7.82;100.00
73981;BME280;62348;51.412;5.436;2024-02-21T08:34:18;101603.34;;;7.83;100.00
73981;BME280;62348;51.412;5.436;2024-02-21T08:36:44;101586.16;;;7.84;100.00
73981;BME280;62348;51.412;5.436;2024-02-21T08:39:09;101589.66;;;7.85;100.00
73981;BME280;62348;51.412;5.436;2024-02-21T08:41:35;101595.06;;;7.85;100.00
73981;BME280;62348;51.412;5.436;2024-02-21T08:44:00;101582.41;;;7.85;100.00
73981;BME280;62348;51.412;5.436;2024-02-21T08:46:26;101583.25;;;7.86;100.00
73981;BME280;62348;51.412;5.436;2024-02-21T08:48:53;101585.09;;;7.85;100.00
73981;BME280;62348;51.412;5.436;2024-02-21T08:51:19;101570.00;;;7.84;100.00
73981;BME280;62348;51.412;5.436;2024-02-21T08:53:45;101569.19;;;7.84;100.00
73981;BME280;62348;51.412;5.436;2024-02-21T08:56:11;101567.53;;;7.82;100.00
73981;BME280;62348;51.412;5.436;2024-02-21T08:58:37;101562.38;;;7.81;100.00
73981;BME280;62348;51.412;5.436;2024-02-21T09:01:06;101560.75;;;7.80;100.00
73981;BME280;62348;51.412;5.436;2024-02-21T09:03:36;101556.16;;;7.80;100.00
73981;BME280;62348;51.412;5.436;2024-02-21T09:06:01;101551.59;;;7.81;100.00
73981;BME280;62348;51.412;5.436;2024-02-21T09:08:27;101544.13;;;7.83;100.00
73981;BME280;62348;51.412;5.436;2024-02-21T09:10:53;101547.66;;;7.84;100.00
73981;BME280;62348;51.412;5.436;2024-02-21T09:13:18;101547.03;;;7.81;100.00
73981;BME280;62348;51.412;5.436;2024-02-21T09:15:44;101543.53;;;7.81;100.00
73981;BME280;62348;51.412;5.436;2024-02-21T09:18:09;101547.88;;;7.82;100.00
73981;BME280;62348;51.412;5.436;2024-02-21T09:20:35;101535.66;;;7.79;100.00
73981;BME280;62348;51.412;5.436;2024-02-21T09:23:00;101531.13;;;7.80;100.00
73981;BME280;62348;51.412;5.436;2024-02-21T09:25:26;101531.13;;;7.80;100.00
73981;BME280;62348;51.412;5.436;2024-02-21T09:27:54;101529.47;;;7.79;100.00
73981;BME280;62348;51.412;5.436;2024-02-21T09:30:19;101527.59;;;7.79;100.00
73981;BME280;62348;51.412;5.436;2024-02-21T09:32:45;101538.34;;;7.79;100.00
73981;BME280;62348;51.412;5.436;2024-02-21T09:35:10;101531.13;;;7.80;100.00
73981;BME280;62348;51.412;5.436;2024-02-21T09:37:38;101523.03;;;7.80;100.00
73981;BME280;62348;51.412;5.436;2024-02-21T09:40:04;101522.78;;;7.81;100.00
73981;BME280;62348;51.412;5.436;2024-02-21T09:42:39;101518.25;;;7.82;100.00
73981;BME280;62348;51.412;5.436;2024-02-21T09:45:21;101502.69;;;7.84;100.00
73981;BME280;62348;51.412;5.436;2024-02-21T09:48:00;101490.84;;;7.85;100.00
73981;BME280;62348;51.412;5.436;2024-02-21T09:50:30;101486.31;;;7.86;100.00
73981;BME280;62348;51.412;5.436;2024-02-21T09:52:58;101480.94;;;7.86;100.00
73981;BME280;62348;51.412;5.436;2024-02-21T09:55:27;101464.53;;;7.87;100.00
73981;BME280;62348;51.412;5.436;2024-02-21T09:57:56;101459.97;;;7.88;100.00
73981;BME280;62348;51.412;5.436;2024-02-21T10:00:23;101458.69;;;7.90;100.00
73981;BME280;62348;51.412;5.436;2024-02-21T10:02:49;101452.88;;;7.93;100.00
73981;BME280;62348;51.412;5.436;2024-02-21T10:05:16;101441.63;;;7.96;100.00
73981;BME280;62348;51.412;5.436;2024-02-21T10:07:43;101433.31;;;7.98;100.00
73981;BME280;62348;51.412;5.436;2024-02-21T10:10:09;101435.34;;;8.02;100.00
73981;BME280;62348;51.412;5.436;2024-02-21T10:12:35;101428.66;;;8.05;100.00
73981;BME280;62348;51.412;5.436;2024-02-21T10:15:05;101425.53;;;8.08;100.00
73981;BME280;62348;51.412;5.436;2024-02-21T10:17:32;101415.09;;;8.12;100.00
73981;BME280;62348;51.412;5.436;2024-02-21T10:20:08;101409.03;;;8.16;100.00
73981;BME280;62348;51.412;5.436;2024-02-21T10:22:34;101405.03;;;8.19;100.00
73981;BME280;62348;51.412;5.436;2024-02-21T10:25:11;101392.75;;;8.23;100.00
73981;BME280;62348;51.412;5.436;2024-02-21T10:27:38;101389.81;;;8.25;100.00
73981;BME280;62348;51.412;5.436;2024-02-21T10:30:06;101372.41;;;8.27;100.00
73981;BME280;62348;51.412;5.436;2024-02-21T10:32:32;101352.25;;;8.30;100.00
73981;BME280;62348;51.412;5.436;2024-02-21T10:35:04;101352.38;;;8.35;100.00
73981;BME280;62348;51.412;5.436;2024-02-21T10:37:30;101346.50;;;8.38;100.00
73981;BME280;62348;51.412;5.436;2024-02-21T10:39:55;101331.75;;;8.40;100.00
73981;BME280;62348;51.412;5.436;2024-02-21T10:42:22;101322.97;;;8.45;100.00
73981;BME280;62348;51.412;5.436;2024-02-21T10:44:50;101304.69;;;8.47;100.00
73981;BME280;62348;51.412;5.436;2024-02-21T10:47:19;101303.41;;;8.50;100.00
73981;BME280;62348;51.412;5.436;2024-02-21T10:49:49;101306.44;;;8.53;100.00
73981;BME280;62348;51.412;5.436;2024-02-21T10:52:30;101303.28;;;8.56;100.00
73981;BME280;62348;51.412;5.436;2024-02-21T10:55:04;101302.00;;;8.59;100.00
73981;BME280;62348;51.412;5.436;2024-02-21T10:57:34;101305.25;;;8.61;100.00
73981;BME280;62348;51.412;5.436;2024-02-21T11:00:02;101312.88;;;8.64;100.00
73981;BME280;62348;51.412;5.436;2024-02-21T11:02:29;101301.28;;;8.64;100.00
73981;BME280;62348;51.412;5.436;2024-02-21T11:04:57;101317.81;;;8.67;100.00
73981;BME280;62348;51.412;5.436;2024-02-21T11:07:22;101314.06;;;8.68;100.00
73981;BME280;62348;51.412;5.436;2024-02-21T11:09:52;101311.13;;;8.70;100.00
73981;BME280;62348;51.412;5.436;2024-02-21T11:12:20;101309.00;;;8.72;100.00
73981;BME280;62348;51.412;5.436;2024-02-21T11:14:46;101293.66;;;8.72;100.00
73981;BME280;62348;51.412;5.436;2024-02-21T11:17:19;101297.75;;;8.75;100.00
73981;BME280;62348;51.412;5.436;2024-02-21T11:19:46;101277.00;;;8.75;100.00
73981;BME280;62348;51.412;5.436;2024-02-21T11:22:16;101276.78;;;8.77;100.00
73981;BME280;62348;51.412;5.436;2024-02-21T11:24:42;101265.50;;;8.80;100.00
73981;BME280;62348;51.412;5.436;2024-02-21T11:27:12;101263.97;;;8.84;100.00
73981;BME280;62348;51.412;5.436;2024-02-21T11:29:48;101258.91;;;8.88;100.00
73981;BME280;62348;51.412;5.436;2024-02-21T11:32:17;101239.09;;;8.94;100.00
73981;BME280;62348;51.412;5.436;2024-02-21T11:34:56;101232.25;;;9.03;100.00
73981;BME280;62348;51.412;5.436;2024-02-21T11:37:25;101241.28;;;9.09;100.00
73981;BME280;62348;51.412;5.436;2024-02-21T11:39:51;101236.78;;;9.14;100.00
73981;BME280;62348;51.412;5.436;2024-02-21T11:42:18;101226.06;;;9.19;100.00
73981;BME280;62348;51.412;5.436;2024-02-21T11:44:43;101232.63;;;9.24;100.00
73981;BME280;62348;51.412;5.436;2024-02-21T11:47:09;101234.25;;;9.25;100.00
73981;BME280;62348;51.412;5.436;2024-02-21T11:49:43;101218.06;;;9.25;100.00
73981;BME280;62348;51.412;5.436;2024-02-21T11:52:09;101214.31;;;9.26;100.00
73981;BME280;62348;51.412;5.436;2024-02-21T11:54:34;101202.47;;;9.27;100.00
73981;BME280;62348;51.412;5.436;2024-02-21T11:57:00;101174.16;;;9.29;100.00
73981;BME280;62348;51.412;5.436;2024-02-21T11:59:26;101178.03;;;9.33;100.00
73981;BME280;62348;51.412;5.436;2024-02-21T12:01:54;101169.19;;;9.38;100.00
73981;BME280;62348;51.412;5.436;2024-02-21T12:04:20;101143.09;;;9.44;100.00
73981;BME280;62348;51.412;5.436;2024-02-21T12:06:46;101156.69;;;9.49;100.00
73981;BME280;62348;51.412;5.436;2024-02-21T12:09:18;101161.09;;;9.55;100.00
73981;BME280;62348;51.412;5.436;2024-02-21T12:11:44;101143.56;;;9.57;100.00
73981;BME280;62348;51.412;5.436;2024-02-21T12:14:09;101132.88;;;9.63;100.00
73981;BME280;62348;51.412;5.436;2024-02-21T12:16:36;101132.09;;;9.67;100.00
73981;BME280;62348;51.412;5.436;2024-02-21T12:19:05;101114.63;;;9.70;100.00
73981;BME280;62348;51.412;5.436;2024-02-21T12:21:32;101107.91;;;9.72;100.00
73981;BME280;62348;51.412;5.436;2024-02-21T12:24:11;101094.16;;;9.74;100.00
73981;BME280;62348;51.412;5.436;2024-02-21T12:26:37;101087.41;;;9.76;100.00
73981;BME280;62348;51.412;5.436;2024-02-21T12:29:02;101088.81;;;9.79;100.00
73981;BME280;62348;51.412;5.436;2024-02-21T12:31:28;101081.28;;;9.81;100.00
73981;BME280;62348;51.412;5.436;2024-02-21T12:33:53;101088.31;;;9.82;100.00
73981;BME280;62348;51.412;5.436;2024-02-21T12:36:18;101068.59;;;9.82;100.00
73981;BME280;62348;51.412;5.436;2024-02-21T12:38:44;101075.88;;;9.81;100.00
73981;BME280;62348;51.412;5.436;2024-02-21T12:41:11;101056.16;;;9.81;100.00
73981;BME280;62348;51.412;5.436;2024-02-21T12:43:37;101046.19;;;9.81;100.00
73981;BME280;62348;51.412;5.436;2024-02-21T12:46:03;101048.03;;;9.81;100.00